Time;durP1;ratioP1;P1;durP2;ratioP2;P2;SDS_P1;SDS_P2;PMS_P1;PMS_P2;Temp;Humidity;BMP_temperature;BMP_pressure;BME280_temperature;BME280_humidity;BME280_pressure;Samples;Min_cycle;Max_cycle;Signal;HPM_P1;HPM_P2
2022/07/12 00:02:18;;;;;;;0.60;0.60;;;;;;;;;;4974221;28;20030;-86
2022/07/12 00:04:46;;;;;;;0.20;0.20;;;;;;;;;;4976373;28;20504;-84
2022/07/12 00:07:11;;;;;;;2.38;0.70;;;;;;;;;;4975025;28;20033;-87
2022/07/12 00:09:36;;;;;;;0.20;0.20;;;;;;;;;;4976909;28;20027;-89
2022/07/12 00:12:04;;;;;;;0.40;0.40;;;;;;;;;;4974426;28;20039;-88
2022/07/12 00:14:34;;;;;;;0.35;0.35;;;;;;;;;;4976531;28;20030;-88
2022/07/12 00:17:00;;;;;;;0.63;0.20;;;;;;;;;;4977706;28;20023;-89
2022/07/12 00:19:25;;;;;;;0.47;0.30;;;;;;;;;;4975267;28;20034;-87
2022/07/12 00:21:50;;;;;;;0.63;0.50;;;;;;;;;;4976603;28;20027;-87
2022/07/12 00:24:16;;;;;;;0.90;0.43;;;;;;;;;;4975455;28;20029;-87
2022/07/12 00:26:43;;;;;;;0.60;0.47;;;;;;;;;;4974257;28;20461;-87
2022/07/12 00:29:11;;;;;;;0.22;0.22;;;;;;;;;;4976068;28;20084;-89
2022/07/12 00:31:37;;;;;;;0.43;0.40;;;;;;;;;;4976190;28;20097;-87
2022/07/12 00:34:03;;;;;;;0.43;0.43;;;;;;;;;;4974317;28;20027;-87
2022/07/12 00:36:30;;;;;;;0.57;0.30;;;;;;;;;;4973754;28;20046;-86
2022/07/12 00:38:56;;;;;;;1.25;0.73;;;;;;;;;;4976291;28;20039;-87
2022/07/12 00:41:24;;;;;;;1.13;0.32;;;;;;;;;;4976567;28;20081;-86
2022/07/12 00:43:49;;;;;;;3.30;1.02;;;;;;;;;;4973773;28;20023;-86
2022/07/12 00:46:19;;;;;;;0.73;0.60;;;;;;;;;;4975445;28;20050;-86
2022/07/12 00:48:44;;;;;;;1.13;0.60;;;;;;;;;;4975160;28;20038;-86
2022/07/12 00:51:10;;;;;;;0.40;0.40;;;;;;;;;;4974236;28;20027;-80
2022/07/12 00:53:36;;;;;;;0.20;0.20;;;;;;;;;;4976072;28;20037;-84
2022/07/12 00:56:02;;;;;;;1.20;0.70;;;;;;;;;;4976679;28;20360;-88
2022/07/12 00:58:29;;;;;;;0.60;0.60;;;;;;;;;;4974232;28;20026;-87
2022/07/12 01:00:56;;;;;;;0.47;0.45;;;;;;;;;;4974453;28;20061;-86
2022/07/12 01:03:24;;;;;;;0.82;0.43;;;;;;;;;;4976016;28;20110;-87
2022/07/12 01:05:50;;;;;;;0.43;0.43;;;;;;;;;;4975052;28;20058;-84
2022/07/12 01:08:16;;;;;;;3.05;0.47;;;;;;;;;;4974408;28;20065;-85
2022/07/12 01:10:45;;;;;;;0.90;0.50;;;;;;;;;;4975183;28;20022;-88
2022/07/12 01:13:13;;;;;;;0.85;0.55;;;;;;;;;;4969255;28;20027;-86
2022/07/12 01:15:41;;;;;;;0.25;0.25;;;;;;;;;;4973947;28;20058;-88
2022/07/12 01:18:09;;;;;;;0.98;0.40;;;;;;;;;;4973139;28;20467;-84
2022/07/12 01:20:34;;;;;;;0.82;0.55;;;;;;;;;;4976102;28;20026;-86
2022/07/12 01:23:00;;;;;;;0.30;0.30;;;;;;;;;;4974720;28;20045;-86
2022/07/12 01:25:27;;;;;;;0.43;0.43;;;;;;;;;;4975525;28;20030;-86
2022/07/12 01:27:55;;;;;;;0.50;0.50;;;;;;;;;;4973716;28;20458;-84
2022/07/12 01:30:21;;;;;;;0.73;0.57;;;;;;;;;;4973174;28;20034;-81
2022/07/12 01:32:46;;;;;;;3.70;1.95;;;;;;;;;;4974222;28;20105;-82
2022/07/12 01:35:13;;;;;;;2.47;0.80;;;;;;;;;;4974725;28;20027;-84
2022/07/12 01:37:45;;;;;;;0.30;0.30;;;;;;;;;;4967702;28;20027;-83
2022/07/12 01:40:15;;;;;;;0.30;0.30;;;;;;;;;;4974992;28;20023;-81
2022/07/12 01:42:41;;;;;;;1.13;0.63;;;;;;;;;;4974449;28;20524;-83
2022/07/12 01:45:09;;;;;;;0.85;0.40;;;;;;;;;;4973081;28;20109;-84
2022/07/12 01:47:36;;;;;;;0.63;0.40;;;;;;;;;;4974814;28;20033;-88
2022/07/12 01:50:05;;;;;;;1.40;0.50;;;;;;;;;;4956344;28;20098;-84
2022/07/12 01:52:31;;;;;;;1.65;0.50;;;;;;;;;;4968190;28;20126;-86
2022/07/12 01:54:57;;;;;;;1.23;0.77;;;;;;;;;;4974135;28;20101;-85
2022/07/12 01:57:22;;;;;;;0.70;0.50;;;;;;;;;;4973842;28;20054;-86
2022/07/12 01:59:48;;;;;;;0.52;0.30;;;;;;;;;;4957025;28;20023;-88
2022/07/12 02:02:16;;;;;;;0.35;0.35;;;;;;;;;;4973667;28;20069;-86
2022/07/12 02:04:43;;;;;;;0.88;0.88;;;;;;;;;;4973113;28;20114;-86
2022/07/12 02:07:09;;;;;;;1.40;0.60;;;;;;;;;;4972006;28;20039;-85
2022/07/12 02:09:36;;;;;;;0.80;0.75;;;;;;;;;;4957863;28;20437;-83
2022/07/12 02:12:04;;;;;;;0.75;0.63;;;;;;;;;;4974072;28;20038;-84
2022/07/12 02:14:32;;;;;;;1.15;0.38;;;;;;;;;;4957232;28;20483;-86
2022/07/12 02:16:57;;;;;;;2.63;1.13;;;;;;;;;;4974129;28;20038;-86
2022/07/12 02:19:23;;;;;;;0.95;0.60;;;;;;;;;;4972496;28;20114;-84
2022/07/12 02:21:48;;;;;;;1.83;1.10;;;;;;;;;;4971201;28;20106;-86
2022/07/12 02:24:14;;;;;;;1.75;0.90;;;;;;;;;;4976799;28;20038;-86
2022/07/12 02:26:39;;;;;;;1.45;0.60;;;;;;;;;;4979198;28;20470;-86
2022/07/12 02:29:05;;;;;;;1.15;0.73;;;;;;;;;;4979327;28;20026;-86
2022/07/12 02:31:31;;;;;;;0.85;0.65;;;;;;;;;;4978777;28;20031;-85
2022/07/12 02:33:59;;;;;;;0.50;0.50;;;;;;;;;;4982300;28;20031;-85
2022/07/12 02:36:24;;;;;;;2.03;1.48;;;;;;;;;;4982300;28;20084;-84
2022/07/12 02:38:50;;;;;;;0.90;0.57;;;;;;;;;;4979076;28;20034;-85
2022/07/12 02:41:15;;;;;;;1.30;0.38;;;;;;;;;;4971602;28;20121;-85
2022/07/12 02:43:41;;;;;;;0.20;0.20;;;;;;;;;;4977967;28;20034;-83
2022/07/12 02:46:07;;;;;;;0.75;0.73;;;;;;;;;;4978772;28;20055;-83
2022/07/12 02:48:33;;;;;;;0.88;0.70;;;;;;;;;;4977640;28;20109;-85
2022/07/12 02:51:02;;;;;;;0.50;0.38;;;;;;;;;;4977895;28;20043;-87
2022/07/12 02:53:28;;;;;;;1.42;1.08;;;;;;;;;;4977763;28;20030;-85
2022/07/12 02:55:53;;;;;;;0.30;0.30;;;;;;;;;;4978751;28;20468;-87
2022/07/12 02:58:19;;;;;;;0.47;0.47;;;;;;;;;;4985030;28;20050;-86
2022/07/12 03:00:44;;;;;;;0.40;0.25;;;;;;;;;;4987500;28;20063;-87
2022/07/12 03:03:10;;;;;;;1.45;0.90;;;;;;;;;;4980674;28;20102;-88
2022/07/12 03:05:39;;;;;;;0.30;0.30;;;;;;;;;;4974394;28;20117;-85
2022/07/12 03:08:05;;;;;;;0.65;0.40;;;;;;;;;;4958063;28;20426;-83
2022/07/12 03:10:33;;;;;;;0.45;0.45;;;;;;;;;;4974234;28;20499;-86
2022/07/12 03:12:59;;;;;;;0.45;0.40;;;;;;;;;;4977449;28;20400;-85
2022/07/12 03:15:24;;;;;;;1.05;0.95;;;;;;;;;;4976651;28;20042;-84
2022/07/12 03:17:49;;;;;;;0.77;0.43;;;;;;;;;;4977200;28;20033;-87
2022/07/12 03:20:15;;;;;;;0.40;0.40;;;;;;;;;;4973165;28;20525;-87
2022/07/12 03:22:41;;;;;;;0.80;0.30;;;;;;;;;;4977693;28;20031;-87
2022/07/12 03:25:10;;;;;;;0.30;0.22;;;;;;;;;;4976639;28;20105;-85
2022/07/12 03:27:35;;;;;;;0.55;0.50;;;;;;;;;;4978408;28;20057;-85
2022/07/12 03:30:01;;;;;;;4.57;0.60;;;;;;;;;;4974961;28;20446;-86
2022/07/12 03:32:26;;;;;;;0.60;0.60;;;;;;;;;;4972424;28;20039;-86
2022/07/12 03:34:52;;;;;;;0.25;0.25;;;;;;;;;;4976260;28;20041;-85
2022/07/12 03:37:17;;;;;;;0.30;0.30;;;;;;;;;;4974880;28;20093;-86
2022/07/12 03:39:43;;;;;;;0.57;0.40;;;;;;;;;;4977413;28;20019;-86
2022/07/12 03:42:08;;;;;;;0.85;0.63;;;;;;;;;;4972842;28;20474;-85
2022/07/12 03:44:36;;;;;;;0.80;0.45;;;;;;;;;;4976555;28;20047;-84
2022/07/12 03:47:01;;;;;;;0.43;0.30;;;;;;;;;;4977269;28;20125;-87
2022/07/12 03:49:29;;;;;;;0.65;0.50;;;;;;;;;;4977458;28;20090;-86
2022/07/12 03:51:54;;;;;;;1.38;0.30;;;;;;;;;;4976330;28;20341;-86
2022/07/12 03:54:24;;;;;;;0.73;0.40;;;;;;;;;;4976340;28;20038;-86
2022/07/12 03:59:36;;;;;;;0.55;0.55;;;;;;;;;;4974129;28;20456;-85
2022/07/12 04:02:02;;;;;;;2.05;0.75;;;;;;;;;;4973051;28;20026;-84
2022/07/12 04:04:27;;;;;;;0.68;0.52;;;;;;;;;;4970211;28;20034;-87
2022/07/12 04:06:53;;;;;;;0.35;0.30;;;;;;;;;;4954182;28;20031;-89
2022/07/12 04:09:21;;;;;;;0.82;0.43;;;;;;;;;;4975205;28;20097;-87
2022/07/12 04:11:46;;;;;;;0.50;0.30;;;;;;;;;;4973449;28;20037;-88
2022/07/12 04:14:11;;;;;;;0.68;0.57;;;;;;;;;;4975099;28;20035;-82
2022/07/12 04:16:37;;;;;;;0.68;0.55;;;;;;;;;;4976516;28;20030;-86
2022/07/12 04:19:05;;;;;;;0.82;0.70;;;;;;;;;;4974545;28;20110;-85
2022/07/12 04:21:31;;;;;;;1.02;0.73;;;;;;;;;;4978243;28;20041;-86
2022/07/12 04:23:56;;;;;;;0.45;0.45;;;;;;;;;;4979436;28;20105;-87
2022/07/12 04:26:22;;;;;;;0.52;0.45;;;;;;;;;;4979585;28;20058;-84
2022/07/12 04:28:49;;;;;;;0.28;0.28;;;;;;;;;;4972158;28;20090;-87
2022/07/12 04:31:15;;;;;;;0.95;0.60;;;;;;;;;;4976194;28;20055;-86
2022/07/12 04:33:40;;;;;;;0.73;0.47;;;;;;;;;;4976071;28;20026;-87
2022/07/12 04:36:06;;;;;;;0.88;0.85;;;;;;;;;;4976029;28;20035;-83
2022/07/12 04:38:33;;;;;;;0.63;0.40;;;;;;;;;;4975546;28;20038;-84
2022/07/12 04:40:59;;;;;;;2.15;0.80;;;;;;;;;;4959195;28;20041;-83
2022/07/12 04:43:24;;;;;;;1.88;1.00;;;;;;;;;;4976218;28;20034;-84
2022/07/12 04:45:50;;;;;;;1.45;1.00;;;;;;;;;;4969747;28;20026;-85
2022/07/12 04:48:16;;;;;;;0.52;0.38;;;;;;;;;;4975035;28;20030;-85
2022/07/12 04:50:44;;;;;;;0.30;0.30;;;;;;;;;;4974995;28;20369;-84
2022/07/12 04:53:12;;;;;;;0.75;0.73;;;;;;;;;;4974454;28;20110;-86
2022/07/12 04:55:37;;;;;;;0.88;0.80;;;;;;;;;;4974427;28;20085;-85
2022/07/12 04:58:04;;;;;;;1.85;0.90;;;;;;;;;;4975645;28;20086;-84
2022/07/12 05:00:29;;;;;;;1.00;0.68;;;;;;;;;;4975757;28;20114;-85
2022/07/12 05:02:54;;;;;;;0.75;0.75;;;;;;;;;;4974676;28;20061;-86
2022/07/12 05:05:20;;;;;;;0.60;0.45;;;;;;;;;;4976319;28;20023;-83
2022/07/12 05:07:48;;;;;;;0.45;0.43;;;;;;;;;;4976290;28;20114;-86
2022/07/12 05:10:13;;;;;;;0.60;0.50;;;;;;;;;;4974820;28;20061;-85
2022/07/12 05:12:39;;;;;;;1.67;0.95;;;;;;;;;;4976159;28;20358;-85
2022/07/12 05:15:08;;;;;;;2.28;1.80;;;;;;;;;;4972392;28;20114;-86
2022/07/12 05:17:35;;;;;;;0.50;0.50;;;;;;;;;;4973733;28;20433;-87
2022/07/12 05:20:01;;;;;;;1.08;0.85;;;;;;;;;;4975053;28;20429;-86
2022/07/12 05:22:31;;;;;;;1.17;0.70;;;;;;;;;;4977978;28;20058;-88
2022/07/12 05:24:56;;;;;;;1.52;0.50;;;;;;;;;;4975757;28;20027;-87
2022/07/12 05:27:24;;;;;;;2.80;0.90;;;;;;;;;;4976643;28;20037;-88
2022/07/12 05:29:49;;;;;;;1.25;1.15;;;;;;;;;;4978412;28;20453;-87
2022/07/12 05:32:16;;;;;;;1.40;0.75;;;;;;;;;;4980452;28;20046;-83
2022/07/12 05:34:47;;;;;;;0.85;0.70;;;;;;;;;;4953006;28;20023;-85
2022/07/12 05:37:14;;;;;;;0.80;0.73;;;;;;;;;;4956297;28;20019;-87
2022/07/12 05:39:42;;;;;;;1.88;1.75;;;;;;;;;;4960295;28;20035;-84
2022/07/12 05:42:07;;;;;;;0.98;0.60;;;;;;;;;;4945518;28;20361;-84
2022/07/12 05:44:33;;;;;;;0.60;0.60;;;;;;;;;;4955314;28;20015;-86
2022/07/12 05:46:58;;;;;;;1.67;0.70;;;;;;;;;;4957236;28;20399;-84
2022/07/12 05:49:24;;;;;;;1.20;1.10;;;;;;;;;;4959549;28;20448;-85
2022/07/12 05:54:36;;;;;;;0.50;0.50;;;;;;;;;;4974695;28;20046;-85
2022/07/12 05:57:03;;;;;;;1.60;1.02;;;;;;;;;;4958111;28;20027;-85
2022/07/12 05:59:29;;;;;;;1.05;0.93;;;;;;;;;;4956859;28;20069;-84
2022/07/12 06:01:55;;;;;;;2.42;1.40;;;;;;;;;;4940839;29;20026;-86
2022/07/12 06:04:20;;;;;;;0.85;0.60;;;;;;;;;;4955903;28;20019;-86
2022/07/12 06:06:48;;;;;;;1.13;1.02;;;;;;;;;;4975042;28;20165;-86
2022/07/12 06:09:13;;;;;;;2.05;1.17;;;;;;;;;;4957852;28;20034;-84
2022/07/12 06:11:39;;;;;;;0.63;0.50;;;;;;;;;;4955353;28;20034;-81
2022/07/12 06:14:07;;;;;;;1.45;1.15;;;;;;;;;;4956939;28;20072;-80
2022/07/12 06:16:32;;;;;;;1.10;0.93;;;;;;;;;;4955599;29;20028;-81
2022/07/12 06:19:01;;;;;;;1.23;1.05;;;;;;;;;;4954523;28;20101;-80
2022/07/12 06:21:26;;;;;;;1.73;0.70;;;;;;;;;;4957077;28;20444;-86
2022/07/12 06:23:53;;;;;;;0.60;0.52;;;;;;;;;;4958121;28;20113;-85
2022/07/12 06:26:18;;;;;;;1.08;0.82;;;;;;;;;;4972881;28;20026;-84
2022/07/12 06:28:43;;;;;;;2.15;1.50;;;;;;;;;;4973521;28;20030;-89
2022/07/12 06:31:09;;;;;;;0.57;0.57;;;;;;;;;;4976831;28;20188;-92
2022/07/12 06:33:37;;;;;;;0.73;0.55;;;;;;;;;;4979451;28;20035;-90
2022/07/12 06:36:02;;;;;;;1.27;0.68;;;;;;;;;;4980954;28;20031;-88
2022/07/12 06:38:31;;;;;;;1.38;0.85;;;;;;;;;;4962481;28;20133;-88
2022/07/12 06:40:56;;;;;;;1.10;0.60;;;;;;;;;;4980403;28;20536;-88
2022/07/12 06:43:26;;;;;;;0.90;0.63;;;;;;;;;;4980549;28;20055;-88
2022/07/12 06:45:51;;;;;;;1.52;0.93;;;;;;;;;;4980430;28;20023;-88
2022/07/12 06:48:19;;;;;;;0.52;0.52;;;;;;;;;;4980389;28;20111;-87
2022/07/12 06:50:49;;;;;;;1.27;0.77;;;;;;;;;;4982664;28;20448;-87
2022/07/12 06:53:14;;;;;;;0.35;0.35;;;;;;;;;;4982475;28;20038;-82
2022/07/12 06:55:42;;;;;;;1.25;1.00;;;;;;;;;;4962548;28;20411;-89
2022/07/12 06:58:08;;;;;;;0.50;0.50;;;;;;;;;;4975614;28;20042;-89
2022/07/12 07:00:36;;;;;;;0.90;0.85;;;;;;;;;;4975169;28;20441;-89
2022/07/12 07:03:03;;;;;;;3.15;0.52;;;;;;;;;;4978310;28;20027;-89
2022/07/12 07:05:31;;;;;;;0.60;0.60;;;;;;;;;;4958951;28;20027;-89
2022/07/12 07:07:56;;;;;;;1.80;0.98;;;;;;;;;;4974304;28;20073;-89
2022/07/12 07:10:24;;;;;;;1.30;0.50;;;;;;;;;;4974070;28;20406;-89
2022/07/12 07:12:49;;;;;;;1.27;0.82;;;;;;;;;;4973425;28;20023;-89
2022/07/12 07:15:16;;;;;;;10.52;0.95;;;;;;;;;;4978934;28;20081;-90
2022/07/12 07:17:45;;;;;;;3.50;1.48;;;;;;;;;;4977842;28;20026;-91
2022/07/12 07:20:11;;;;;;;2.03;1.50;;;;;;;;;;4978100;28;20022;-90
2022/07/12 07:22:36;;;;;;;3.55;1.10;;;;;;;;;;4978436;28;20089;-91
2022/07/12 07:25:02;;;;;;;2.78;0.80;;;;;;;;;;4978534;28;20031;-92
2022/07/12 07:27:27;;;;;;;1.10;0.60;;;;;;;;;;4978099;28;20057;-91
2022/07/12 07:32:36;;;;;;;0.68;0.68;;;;;;;;;;4977938;28;20129;-91
2022/07/12 07:35:05;;;;;;;0.60;0.43;;;;;;;;;;4978302;28;20504;-91
2022/07/12 07:37:31;;;;;;;0.50;0.50;;;;;;;;;;4973619;28;20026;-91
2022/07/12 07:39:58;;;;;;;1.15;0.80;;;;;;;;;;4961005;28;20118;-90
2022/07/12 07:42:28;;;;;;;0.40;0.30;;;;;;;;;;4977515;28;20342;-91
2022/07/12 07:44:54;;;;;;;0.40;0.40;;;;;;;;;;4977482;28;20461;-90
2022/07/12 07:47:19;;;;;;;0.50;0.50;;;;;;;;;;4977988;28;20052;-91
2022/07/12 07:49:44;;;;;;;0.47;0.47;;;;;;;;;;4978398;28;20089;-90
2022/07/12 07:52:12;;;;;;;1.23;0.90;;;;;;;;;;4977131;28;20027;-92
2022/07/12 07:54:37;;;;;;;1.23;1.00;;;;;;;;;;4977413;28;20069;-92
2022/07/12 07:57:05;;;;;;;1.75;0.60;;;;;;;;;;4972196;28;20456;-90
2022/07/12 07:59:31;;;;;;;3.53;0.70;;;;;;;;;;4976669;28;20058;-91
2022/07/12 08:01:56;;;;;;;1.27;1.08;;;;;;;;;;4977996;28;20058;-91
2022/07/12 08:04:22;;;;;;;3.95;1.00;;;;;;;;;;4977719;28;20027;-90
2022/07/12 08:06:48;;;;;;;4.15;1.35;;;;;;;;;;4976237;28;20026;-91
2022/07/12 08:09:14;;;;;;;17.77;2.45;;;;;;;;;;4976931;28;20169;-92
2022/07/12 08:11:45;;;;;;;17.38;1.55;;;;;;;;;;4977997;28;20078;-92
2022/07/12 08:14:18;;;;;;;0.60;0.60;;;;;;;;;;4976529;28;20031;-91
2022/07/12 08:16:45;;;;;;;0.47;0.47;;;;;;;;;;4976851;28;20030;-91
2022/07/12 08:19:11;;;;;;;1.58;0.65;;;;;;;;;;4977100;28;20054;-92
2022/07/12 08:21:38;;;;;;;5.03;0.93;;;;;;;;;;4976924;28;20125;-91
2022/07/12 08:24:07;;;;;;;9.80;3.83;;;;;;;;;;4973546;28;20054;-91
2022/07/12 08:26:35;;;;;;;0.93;0.70;;;;;;;;;;4977833;28;20037;-91
2022/07/12 08:29:00;;;;;;;0.50;0.50;;;;;;;;;;4974772;28;20113;-90
2022/07/12 08:31:25;;;;;;;0.60;0.60;;;;;;;;;;4977004;28;20421;-87
2022/07/12 08:33:53;;;;;;;0.95;0.60;;;;;;;;;;4977468;28;20034;-93
2022/07/12 08:36:21;;;;;;;0.65;0.65;;;;;;;;;;4976811;28;20052;-91
2022/07/12 08:38:49;;;;;;;0.57;0.57;;;;;;;;;;4976992;28;20030;-88
2022/07/12 08:41:15;;;;;;;0.30;0.30;;;;;;;;;;4976321;28;20502;-88
2022/07/12 08:43:43;;;;;;;1.60;0.45;;;;;;;;;;4976009;28;20142;-91
2022/07/12 08:46:13;;;;;;;0.47;0.47;;;;;;;;;;4976021;28;20022;-88
2022/07/12 08:48:40;;;;;;;1.17;0.47;;;;;;;;;;4976011;28;20106;-89
2022/07/12 08:51:07;;;;;;;0.73;0.50;;;;;;;;;;4976922;28;20026;-92
2022/07/12 08:53:33;;;;;;;0.70;0.45;;;;;;;;;;4975399;28;20038;-91
2022/07/12 08:55:58;;;;;;;1.00;0.65;;;;;;;;;;4971311;28;20673;-91
2022/07/12 08:58:24;;;;;;;0.68;0.68;;;;;;;;;;4976262;28;20030;-90
2022/07/12 09:00:50;;;;;;;0.30;0.30;;;;;;;;;;4976123;28;20052;-91
2022/07/12 09:03:15;;;;;;;0.73;0.60;;;;;;;;;;4977388;28;20030;-90
2022/07/12 09:05:56;;;;;;;0.65;0.52;;;;;;;;;;4976310;28;20481;-91
2022/07/12 09:08:31;;;;;;;0.45;0.45;;;;;;;;;;4975829;28;20030;-92
2022/07/12 09:11:01;;;;;;;0.60;0.43;;;;;;;;;;4975214;28;20111;-91
2022/07/12 09:13:50;;;;;;;1.38;0.73;;;;;;;;;;4975919;28;20031;-90
2022/07/12 09:16:20;;;;;;;0.57;0.57;;;;;;;;;;4976471;28;20027;-89
2022/07/12 09:18:46;;;;;;;5.70;2.35;;;;;;;;;;4976195;28;20414;-91
2022/07/12 09:21:25;;;;;;;9.07;2.13;;;;;;;;;;4975597;28;20026;-92
2022/07/12 09:23:52;;;;;;;0.30;0.30;;;;;;;;;;4971802;28;20115;-89
2022/07/12 09:26:22;;;;;;;2.95;1.10;;;;;;;;;;4974709;28;20030;-91
2022/07/12 09:28:50;;;;;;;11.15;2.70;;;;;;;;;;4976965;28;20022;-91
2022/07/12 09:31:18;;;;;;;0.60;0.60;;;;;;;;;;4976240;28;20030;-88
2022/07/12 09:36:54;;;;;;;1.10;0.80;;;;;;;;;;4976682;28;20030;-90
2022/07/12 09:39:20;;;;;;;0.50;0.40;;;;;;;;;;4974596;28;20034;-91
2022/07/12 09:41:45;;;;;;;0.30;0.30;;;;;;;;;;4975756;28;20041;-92
2022/07/12 09:44:11;;;;;;;1.77;0.98;;;;;;;;;;4975813;28;20554;-91
2022/07/12 09:46:37;;;;;;;0.50;0.50;;;;;;;;;;4975422;28;20061;-91
2022/07/12 09:49:03;;;;;;;1.58;0.50;;;;;;;;;;4976762;28;20042;-92
2022/07/12 09:51:29;;;;;;;2.10;1.30;;;;;;;;;;4974035;28;20342;-89
2022/07/12 09:53:59;;;;;;;1.25;1.10;;;;;;;;;;4955976;28;20027;-89
2022/07/12 09:56:26;;;;;;;1.55;0.60;;;;;;;;;;4975129;28;20027;-90
2022/07/12 09:58:52;;;;;;;0.40;0.40;;;;;;;;;;4959050;28;20452;-92
2022/07/12 10:01:21;;;;;;;1.23;0.60;;;;;;;;;;4958433;28;20034;-90
2022/07/12 10:03:49;;;;;;;0.57;0.50;;;;;;;;;;4975397;28;20022;-89
2022/07/12 10:06:26;;;;;;;2.20;1.55;;;;;;;;;;4975552;28;20102;-89
2022/07/12 10:08:52;;;;;;;31.02;10.65;;;;;;;;;;4957165;28;20346;-85
2022/07/12 10:11:18;;;;;;;31.77;7.57;;;;;;;;;;4972928;28;20089;-90
2022/07/12 10:13:46;;;;;;;3.53;1.85;;;;;;;;;;4975488;28;20026;-85
2022/07/12 10:16:15;;;;;;;5.15;1.23;;;;;;;;;;4957819;28;20041;-89
2022/07/12 10:18:42;;;;;;;9.82;5.25;;;;;;;;;;4978425;28;20082;-86
2022/07/12 10:21:21;;;;;;;1.02;0.77;;;;;;;;;;4984849;28;20022;-87
2022/07/12 10:23:47;;;;;;;0.25;0.25;;;;;;;;;;4980685;28;20034;-88
2022/07/12 10:26:16;;;;;;;1.45;0.28;;;;;;;;;;4988884;28;20030;-88
2022/07/12 10:29:04;;;;;;;0.40;0.40;;;;;;;;;;4980135;28;20115;-91
2022/07/12 10:31:34;;;;;;;1.77;1.38;;;;;;;;;;4982682;28;20027;-86
2022/07/12 10:34:19;;;;;;;7.47;2.88;;;;;;;;;;4959836;28;20023;-89
2022/07/12 10:36:56;;;;;;;0.40;0.40;;;;;;;;;;4968296;28;20039;-90
2022/07/12 10:39:28;;;;;;;2.65;1.67;;;;;;;;;;4972409;28;20038;-90
2022/07/12 10:42:06;;;;;;;0.40;0.40;;;;;;;;;;4969985;28;20074;-86
2022/07/12 10:44:38;;;;;;;1.45;0.40;;;;;;;;;;4974480;28;20448;-85
2022/07/12 10:47:22;;;;;;;0.35;0.20;;;;;;;;;;4977515;28;20038;-92
2022/07/12 10:49:52;;;;;;;1.00;0.30;;;;;;;;;;4978299;28;20027;-90
2022/07/12 10:52:23;;;;;;;1.27;0.55;;;;;;;;;;4970942;28;20031;-91
2022/07/12 10:54:55;;;;;;;;;;;;;;;;;;4977627;28;20027;-89
2022/07/12 10:57:46;;;;;;;0.20;0.20;;;;;;;;;;4976081;28;19941;-91
2022/07/12 11:00:15;;;;;;;1.17;0.55;;;;;;;;;;4977542;28;20066;-90
2022/07/12 11:02:41;;;;;;;0.47;0.45;;;;;;;;;;4978108;28;20043;-87
2022/07/12 11:05:09;;;;;;;2.15;0.43;;;;;;;;;;4957830;28;20426;-87
2022/07/12 11:07:35;;;;;;;0.30;0.28;;;;;;;;;;4972125;28;20589;-87
2022/07/12 11:10:03;;;;;;;0.38;0.38;;;;;;;;;;4961823;28;20054;-89
2022/07/12 11:12:32;;;;;;;0.38;0.30;;;;;;;;;;4971746;28;20018;-91
2022/07/12 11:15:01;;;;;;;0.30;0.30;;;;;;;;;;4973061;28;20031;-90
2022/07/12 11:17:30;;;;;;;0.30;0.30;;;;;;;;;;4955350;28;20031;-90
2022/07/12 11:20:06;;;;;;;0.20;0.20;;;;;;;;;;4959722;28;20038;-87
2022/07/12 11:22:34;;;;;;;1.00;0.30;;;;;;;;;;4978276;28;20440;-91
2022/07/12 11:25:00;;;;;;;0.25;0.25;;;;;;;;;;4961834;28;20035;-85
2022/07/12 11:27:28;;;;;;;0.20;0.20;;;;;;;;;;4961191;28;20037;-89
2022/07/12 11:30:00;;;;;;;0.45;0.45;;;;;;;;;;4977095;28;20357;-88
2022/07/12 11:32:41;;;;;;;2.75;0.60;;;;;;;;;;4978680;28;20060;-89
2022/07/12 11:35:28;;;;;;;0.30;0.30;;;;;;;;;;4977719;28;20488;-89
2022/07/12 11:37:55;;;;;;;0.82;0.52;;;;;;;;;;4976004;28;20039;-87
2022/07/12 11:40:24;;;;;;;0.30;0.30;;;;;;;;;;4977737;28;20039;-90
2022/07/12 11:42:58;;;;;;;4.53;0.95;;;;;;;;;;4978641;28;20474;-92
2022/07/12 11:45:32;;;;;;;6.45;4.47;;;;;;;;;;4973898;28;20081;-88
2022/07/12 11:48:02;;;;;;;2.60;1.13;;;;;;;;;;4973151;28;20027;-82
2022/07/12 11:50:29;;;;;;;23.80;9.38;;;;;;;;;;4975956;28;20026;-83
2022/07/12 11:52:55;;;;;;;4.35;2.22;;;;;;;;;;4978134;28;20038;-84
2022/07/12 11:55:21;;;;;;;9.98;2.90;;;;;;;;;;4976485;28;20393;-87
2022/07/12 11:57:46;;;;;;;1.52;1.35;;;;;;;;;;4972149;28;20106;-87
2022/07/12 12:00:26;;;;;;;53.03;12.38;;;;;;;;;;4977617;28;20031;-84
2022/07/12 12:02:54;;;;;;;3.65;1.92;;;;;;;;;;4975568;28;20349;-85
2022/07/12 12:05:22;;;;;;;6.25;3.00;;;;;;;;;;4977646;28;20038;-86
2022/07/12 12:07:48;;;;;;;4.15;1.25;;;;;;;;;;4977927;28;20084;-84
2022/07/12 12:10:14;;;;;;;0.20;0.20;;;;;;;;;;4960458;28;20440;-86
2022/07/12 12:12:42;;;;;;;1.42;0.77;;;;;;;;;;4977241;28;20065;-85
2022/07/12 12:15:10;;;;;;;0.55;0.55;;;;;;;;;;4975865;28;20035;-85
2022/07/12 12:17:43;;;;;;;1.33;0.90;;;;;;;;;;4976417;28;20027;-86
2022/07/12 12:20:11;;;;;;;9.65;2.08;;;;;;;;;;4974438;28;20348;-89
2022/07/12 12:22:37;;;;;;;7.90;1.65;;;;;;;;;;4976531;28;20026;-80
2022/07/12 12:25:15;;;;;;;62.72;19.38;;;;;;;;;;4959019;28;20049;-83
2022/07/12 12:27:41;;;;;;;3.65;1.20;;;;;;;;;;4976735;28;20027;-85
2022/07/12 12:30:10;;;;;;;17.98;1.65;;;;;;;;;;4977144;28;20104;-84
2022/07/12 12:32:55;;;;;;;1.38;1.05;;;;;;;;;;4975023;28;20038;-87
2022/07/12 12:35:23;;;;;;;0.73;0.35;;;;;;;;;;4973197;28;20031;-85
2022/07/12 12:38:02;;;;;;;0.30;0.30;;;;;;;;;;4976280;28;20029;-84
2022/07/12 12:40:29;;;;;;;0.32;0.30;;;;;;;;;;4972107;28;20471;-84
2022/07/12 12:43:12;;;;;;;4.10;0.93;;;;;;;;;;4975096;28;20114;-85
2022/07/12 12:45:49;;;;;;;4.20;1.83;;;;;;;;;;4974701;28;20045;-87
2022/07/12 12:48:27;;;;;;;0.60;0.30;;;;;;;;;;4970043;28;20352;-85
2022/07/12 12:51:04;;;;;;;0.43;0.40;;;;;;;;;;4976708;28;20034;-84
2022/07/12 12:53:29;;;;;;;5.70;2.80;;;;;;;;;;4975207;28;20034;-84
2022/07/12 12:55:56;;;;;;;1.58;0.80;;;;;;;;;;4975757;28;20039;-87
2022/07/12 12:58:25;;;;;;;1.92;0.65;;;;;;;;;;4975894;28;20124;-85
2022/07/12 13:00:53;;;;;;;4.53;1.10;;;;;;;;;;4975654;28;20073;-88
2022/07/12 13:03:24;;;;;;;0.22;0.17;;;;;;;;;;4975328;28;20032;-85
2022/07/12 13:05:50;;;;;;;7.68;1.67;;;;;;;;;;4976863;28;20046;-85
2022/07/12 13:08:16;;;;;;;0.70;0.40;;;;;;;;;;4975806;28;20133;-85
2022/07/12 13:10:45;;;;;;;1.35;0.73;;;;;;;;;;4975624;28;20397;-88
2022/07/12 13:13:12;;;;;;;0.40;0.40;;;;;;;;;;4975443;28;20026;-89
2022/07/12 13:15:37;;;;;;;1.45;0.20;;;;;;;;;;4975239;28;20456;-86
2022/07/12 13:18:06;;;;;;;0.20;0.20;;;;;;;;;;4976341;28;20042;-85
2022/07/12 13:20:32;;;;;;;1.67;1.48;;;;;;;;;;4974314;28;20030;-86
2022/07/12 13:22:58;;;;;;;2.08;0.50;;;;;;;;;;4986533;28;20031;-82
2022/07/12 13:25:24;;;;;;;1.02;0.70;;;;;;;;;;4974642;28;20033;-86
2022/07/12 13:27:53;;;;;;;1.00;0.60;;;;;;;;;;4974267;28;20113;-87
2022/07/12 13:30:20;;;;;;;1.35;0.70;;;;;;;;;;4975094;28;20038;-88
2022/07/12 13:32:46;;;;;;;0.30;0.30;;;;;;;;;;4975507;28;20030;-86
2022/07/12 13:35:12;;;;;;;0.55;0.30;;;;;;;;;;4957475;28;20026;-86
2022/07/12 13:37:41;;;;;;;0.60;0.50;;;;;;;;;;4974550;28;20036;-88
2022/07/12 13:40:10;;;;;;;2.05;1.13;;;;;;;;;;4969094;28;20342;-85
2022/07/12 13:42:41;;;;;;;1.60;1.20;;;;;;;;;;4974871;28;20027;-86
2022/07/12 13:45:09;;;;;;;0.82;0.50;;;;;;;;;;4976526;28;20018;-72
2022/07/12 13:47:35;;;;;;;1.17;0.95;;;;;;;;;;4959002;28;20444;-71
2022/07/12 13:50:04;;;;;;;1.38;1.27;;;;;;;;;;4973728;28;20026;-71
2022/07/12 13:52:32;;;;;;;1.85;0.50;;;;;;;;;;4972682;28;20031;-71
2022/07/12 13:55:00;;;;;;;1.45;0.65;;;;;;;;;;4975167;28;20027;-72
2022/07/12 13:57:25;;;;;;;0.50;0.28;;;;;;;;;;4972658;28;20132;-73
2022/07/12 13:59:51;;;;;;;0.30;0.30;;;;;;;;;;4972117;28;20119;-73
2022/07/12 14:02:17;;;;;;;42.20;20.52;;;;;;;;;;4973563;28;20042;-72
2022/07/12 14:04:45;;;;;;;2.88;1.80;;;;;;;;;;4973054;28;20371;-72
2022/07/12 14:07:13;;;;;;;8.35;4.75;;;;;;;;;;4972540;28;20030;-72
2022/07/12 14:09:39;;;;;;;2.38;1.38;;;;;;;;;;4969164;28;20027;-72
2022/07/12 14:12:09;;;;;;;1.00;0.70;;;;;;;;;;4974359;28;20034;-72
2022/07/12 14:17:19;;;;;;;0.55;0.38;;;;;;;;;;4969763;28;20387;-72
2022/07/12 14:19:45;;;;;;;0.22;0.22;;;;;;;;;;4976456;28;20018;-72
2022/07/12 14:22:10;;;;;;;0.55;0.55;;;;;;;;;;4978411;28;20552;-71
2022/07/12 14:24:35;;;;;;;0.80;0.80;;;;;;;;;;4977401;28;20044;-74
2022/07/12 14:27:03;;;;;;;1.00;0.52;;;;;;;;;;4977779;28;20027;-72
2022/07/12 14:29:31;;;;;;;0.98;0.90;;;;;;;;;;4978030;28;20474;-72
2022/07/12 14:31:57;;;;;;;0.22;0.22;;;;;;;;;;4979180;28;20026;-72
2022/07/12 14:34:23;;;;;;;2.17;0.50;;;;;;;;;;4978998;28;20031;-72
2022/07/12 14:36:48;;;;;;;0.63;0.55;;;;;;;;;;4978894;28;20359;-72
2022/07/12 14:39:14;;;;;;;0.85;0.73;;;;;;;;;;4978362;28;20400;-72
2022/07/12 14:41:39;;;;;;;0.38;0.38;;;;;;;;;;4978939;28;20432;-72
2022/07/12 14:44:06;;;;;;;1.02;0.57;;;;;;;;;;4977162;28;20413;-72
2022/07/12 14:46:33;;;;;;;0.28;0.28;;;;;;;;;;4978673;28;20030;-74
2022/07/12 14:49:00;;;;;;;0.20;0.20;;;;;;;;;;4978821;28;20031;-73
2022/07/12 14:51:26;;;;;;;0.52;0.52;;;;;;;;;;4978737;28;20026;-72
2022/07/12 14:53:52;;;;;;;0.45;0.40;;;;;;;;;;4978012;28;20027;-72
2022/07/12 14:56:18;;;;;;;0.43;0.43;;;;;;;;;;4977011;28;20042;-72
2022/07/12 14:58:43;;;;;;;1.95;0.47;;;;;;;;;;4976723;28;20031;-72
2022/07/12 15:01:09;;;;;;;1.85;1.27;;;;;;;;;;4978648;28;20502;-72